sensor_id;sensor_type;location;lat;lon;timestamp;temperature;humidity
64833;HTU21D;51290;45.060;38.948;2024-02-23T00:00:54;1.97;69.86
64833;HTU21D;51290;45.060;38.948;2024-02-23T00:03:20;1.97;70.05
64833;HTU21D;51290;45.060;38.948;2024-02-23T00:05:46;1.97;70.16
64833;HTU21D;51290;45.060;38.948;2024-02-23T00:08:12;1.99;70.30
64833;HTU21D;51290;45.060;38.948;2024-02-23T00:10:38;1.99;70.48
64833;HTU21D;51290;45.060;38.948;2024-02-23T00:13:04;1.98;70.61
64833;HTU21D;51290;45.060;38.948;2024-02-23T00:15:30;1.97;70.66
64833;HTU21D;51290;45.060;38.948;2024-02-23T00:17:56;1.97;70.74
64833;HTU21D;51290;45.060;38.948;2024-02-23T00:20:22;1.95;70.77
64833;HTU21D;51290;45.060;38.948;2024-02-23T00:22:48;1.92;70.85
64833;HTU21D;51290;45.060;38.948;2024-02-23T00:25:14;1.91;70.92
64833;HTU21D;51290;45.060;38.948;2024-02-23T00:27:40;1.88;70.93
64833;HTU21D;51290;45.060;38.948;2024-02-23T00:30:07;1.88;70.90
64833;HTU21D;51290;45.060;38.948;2024-02-23T00:32:33;1.85;70.90
64833;HTU21D;51290;45.060;38.948;2024-02-23T00:34:59;1.83;70.88
64833;HTU21D;51290;45.060;38.948;2024-02-23T00:37:25;1.80;70.86
64833;HTU21D;51290;45.060;38.948;2024-02-23T00:39:51;1.75;70.85
64833;HTU21D;51290;45.060;38.948;2024-02-23T00:42:17;1.75;70.97
64833;HTU21D;51290;45.060;38.948;2024-02-23T00:44:43;1.76;71.00
64833;HTU21D;51290;45.060;38.948;2024-02-23T00:47:09;1.73;71.00
64833;HTU21D;51290;45.060;38.948;2024-02-23T00:49:35;1.75;71.00
64833;HTU21D;51290;45.060;38.948;2024-02-23T00:52:01;1.75;71.10
64833;HTU21D;51290;45.060;38.948;2024-02-23T00:54:27;1.75;71.07
64833;HTU21D;51290;45.060;38.948;2024-02-23T00:56:53;1.76;71.05
64833;HTU21D;51290;45.060;38.948;2024-02-23T00:59:18;1.77;71.03
64833;HTU21D;51290;45.060;38.948;2024-02-23T01:01:45;1.76;71.08
64833;HTU21D;51290;45.060;38.948;2024-02-23T01:04:11;1.75;71.07
64833;HTU21D;51290;45.060;38.948;2024-02-23T01:06:37;1.76;71.10
64833;HTU21D;51290;45.060;38.948;2024-02-23T01:09:03;1.78;71.08
64833;HTU21D;51290;45.060;38.948;2024-02-23T01:11:31;1.76;71.10
64833;HTU21D;51290;45.060;38.948;2024-02-23T01:13:57;1.76;71.09
64833;HTU21D;51290;45.060;38.948;2024-02-23T01:16:23;1.76;71.10
64833;HTU21D;51290;45.060;38.948;2024-02-23T01:18:49;1.73;71.14
64833;HTU21D;51290;45.060;38.948;2024-02-23T01:21:15;1.76;71.20
64833;HTU21D;51290;45.060;38.948;2024-02-23T01:23:41;1.75;71.24
64833;HTU21D;51290;45.060;38.948;2024-02-23T01:26:07;1.77;71.33
64833;HTU21D;51290;45.060;38.948;2024-02-23T01:28:33;1.77;71.45
64833;HTU21D;51290;45.060;38.948;2024-02-23T01:30:59;1.76;71.52
64833;HTU21D;51290;45.060;38.948;2024-02-23T01:33:25;1.76;71.57
64833;HTU21D;51290;45.060;38.948;2024-02-23T01:35:51;1.75;71.58
64833;HTU21D;51290;45.060;38.948;2024-02-23T01:38:17;1.72;71.65
64833;HTU21D;51290;45.060;38.948;2024-02-23T01:40:47;1.72;71.78
64833;HTU21D;51290;45.060;38.948;2024-02-23T01:43:13;1.73;71.85
64833;HTU21D;51290;45.060;38.948;2024-02-23T01:45:39;1.76;71.90
64833;HTU21D;51290;45.060;38.948;2024-02-23T01:48:05;1.76;71.91
64833;HTU21D;51290;45.060;38.948;2024-02-23T01:50:32;1.76;71.91
64833;HTU21D;51290;45.060;38.948;2024-02-23T01:53:01;1.78;71.96
64833;HTU21D;51290;45.060;38.948;2024-02-23T01:55:28;1.81;72.00
64833;HTU21D;51290;45.060;38.948;2024-02-23T01:57:56;1.83;72.03
64833;HTU21D;51290;45.060;38.948;2024-02-23T02:00:22;1.88;72.09
64833;HTU21D;51290;45.060;38.948;2024-02-23T02:02:54;1.95;72.18
64833;HTU21D;51290;45.060;38.948;2024-02-23T02:05:21;1.99;72.25
64833;HTU21D;51290;45.060;38.948;2024-02-23T02:07:49;2.03;72.33
64833;HTU21D;51290;45.060;38.948;2024-02-23T02:10:20;2.08;72.32
64833;HTU21D;51290;45.060;38.948;2024-02-23T02:12:45;2.12;72.32
64833;HTU21D;51290;45.060;38.948;2024-02-23T02:15:12;2.15;72.32
64833;HTU21D;51290;45.060;38.948;2024-02-23T02:17:38;2.22;72.32
64833;HTU21D;51290;45.060;38.948;2024-02-23T02:20:04;2.24;72.32
64833;HTU21D;51290;45.060;38.948;2024-02-23T02:22:32;2.28;72.32
64833;HTU21D;51290;45.060;38.948;2024-02-23T02:24:59;2.32;72.32
64833;HTU21D;51290;45.060;38.948;2024-02-23T02:27:25;2.36;72.34
64833;HTU21D;51290;45.060;38.948;2024-02-23T02:29:51;2.41;72.34
64833;HTU21D;51290;45.060;38.948;2024-02-23T02:32:19;2.43;72.33
64833;HTU21D;51290;45.060;38.948;2024-02-23T02:34:45;2.46;72.32
64833;HTU21D;51290;45.060;38.948;2024-02-23T02:37:11;2.50;72.34
64833;HTU21D;51290;45.060;38.948;2024-02-23T02:39:37;2.54;72.35
64833;HTU21D;51290;45.060;38.948;2024-02-23T02:42:03;2.57;72.32
64833;HTU21D;51290;45.060;38.948;2024-02-23T02:44:29;2.59;72.29
64833;HTU21D;51290;45.060;38.948;2024-02-23T02:46:56;2.64;72.32
64833;HTU21D;51290;45.060;38.948;2024-02-23T02:49:23;2.67;72.31
64833;HTU21D;51290;45.060;38.948;2024-02-23T02:51:50;2.70;72.29
64833;HTU21D;51290;45.060;38.948;2024-02-23T02:54:16;2.72;72.29
64833;HTU21D;51290;45.060;38.948;2024-02-23T02:56:43;2.79;72.27
64833;HTU21D;51290;45.060;38.948;2024-02-23T02:59:09;2.82;72.19
64833;HTU21D;51290;45.060;38.948;2024-02-23T03:01:36;2.88;72.13
64833;HTU21D;51290;45.060;38.948;2024-02-23T03:04:02;2.89;72.09
64833;HTU21D;51290;45.060;38.948;2024-02-23T03:06:27;2.91;72.13
64833;HTU21D;51290;45.060;38.948;2024-02-23T03:08:53;2.97;72.10
64833;HTU21D;51290;45.060;38.948;2024-02-23T03:11:19;3.01;72.09
64833;HTU21D;51290;45.060;38.948;2024-02-23T03:13:45;3.04;71.99
64833;HTU21D;51290;45.060;38.948;2024-02-23T03:16:20;3.08;71.87
64833;HTU21D;51290;45.060;38.948;2024-02-23T03:18:49;3.12;71.74
64833;HTU21D;51290;45.060;38.948;2024-02-23T03:21:15;3.12;71.68
64833;HTU21D;51290;45.060;38.948;2024-02-23T03:23:41;3.13;71.67
64833;HTU21D;51290;45.060;38.948;2024-02-23T03:26:07;3.12;71.69
64833;HTU21D;51290;45.060;38.948;2024-02-23T03:28:33;3.12;71.69
64833;HTU21D;51290;45.060;38.948;2024-02-23T03:31:00;3.12;71.72
64833;HTU21D;51290;45.060;38.948;2024-02-23T03:33:26;3.10;71.67
64833;HTU21D;51290;45.060;38.948;2024-02-23T03:35:52;3.08;71.66
64833;HTU21D;51290;45.060;38.948;2024-02-23T03:38:18;3.06;71.68
64833;HTU21D;51290;45.060;38.948;2024-02-23T03:40:44;3.04;71.71
64833;HTU21D;51290;45.060;38.948;2024-02-23T03:43:11;3.03;71.74
64833;HTU21D;51290;45.060;38.948;2024-02-23T03:45:36;3.01;71.78
64833;HTU21D;51290;45.060;38.948;2024-02-23T03:48:04;3.01;71.82
64833;HTU21D;51290;45.060;38.948;2024-02-23T03:50:30;3.00;71.87
64833;HTU21D;51290;45.060;38.948;2024-02-23T03:52:56;3.00;71.92
64833;HTU21D;51290;45.060;38.948;2024-02-23T03:55:22;2.99;71.93
64833;HTU21D;51290;45.060;38.948;2024-02-23T03:57:48;3.00;71.97
64833;HTU21D;51290;45.060;38.948;2024-02-23T04:00:15;3.00;72.05
64833;HTU21D;51290;45.060;38.948;2024-02-23T04:02:41;3.02;72.09
64833;HTU21D;51290;45.060;38.948;2024-02-23T04:05:07;3.02;72.12
64833;HTU21D;51290;45.060;38.948;2024-02-23T04:07:33;3.03;72.14
64833;HTU21D;51290;45.060;38.948;2024-02-23T04:09:59;3.05;72.13
64833;HTU21D;51290;45.060;38.948;2024-02-23T04:12:25;3.08;72.13
64833;HTU21D;51290;45.060;38.948;2024-02-23T04:14:51;3.08;72.11
64833;HTU21D;51290;45.060;38.948;2024-02-23T04:17:17;3.11;72.09
64833;HTU21D;51290;45.060;38.948;2024-02-23T04:19:43;3.12;72.06
64833;HTU21D;51290;45.060;38.948;2024-02-23T04:22:10;3.11;72.10
64833;HTU21D;51290;45.060;38.948;2024-02-23T04:24:37;3.11;72.16
64833;HTU21D;51290;45.060;38.948;2024-02-23T04:27:04;3.11;72.22
64833;HTU21D;51290;45.060;38.948;2024-02-23T04:29:30;3.12;72.27
64833;HTU21D;51290;45.060;38.948;2024-02-23T04:31:59;3.13;72.29
64833;HTU21D;51290;45.060;38.948;2024-02-23T04:34:25;3.13;72.29
64833;HTU21D;51290;45.060;38.948;2024-02-23T04:36:51;3.15;72.29
64833;HTU21D;51290;45.060;38.948;2024-02-23T04:39:17;3.17;72.29
64833;HTU21D;51290;45.060;38.948;2024-02-23T04:41:43;3.18;72.25
64833;HTU21D;51290;45.060;38.948;2024-02-23T04:44:09;3.18;72.29
64833;HTU21D;51290;45.060;38.948;2024-02-23T04:46:35;3.20;72.30
64833;HTU21D;51290;45.060;38.948;2024-02-23T04:49:01;3.23;72.32
64833;HTU21D;51290;45.060;38.948;2024-02-23T04:51:28;3.24;72.35
64833;HTU21D;51290;45.060;38.948;2024-02-23T04:53:54;3.26;72.41
64833;HTU21D;51290;45.060;38.948;2024-02-23T04:56:20;3.28;72.47
64833;HTU21D;51290;45.060;38.948;2024-02-23T04:58:46;3.32;72.51
64833;HTU21D;51290;45.060;38.948;2024-02-23T05:01:12;3.34;72.50
64833;HTU21D;51290;45.060;38.948;2024-02-23T05:03:38;3.36;72.51
64833;HTU21D;51290;45.060;38.948;2024-02-23T05:06:05;3.38;72.51
64833;HTU21D;51290;45.060;38.948;2024-02-23T05:08:31;3.39;72.51
64833;HTU21D;51290;45.060;38.948;2024-02-23T05:10:57;3.38;72.48
64833;HTU21D;51290;45.060;38.948;2024-02-23T05:13:23;3.40;72.50
64833;HTU21D;51290;45.060;38.948;2024-02-23T05:15:49;3.42;72.46
64833;HTU21D;51290;45.060;38.948;2024-02-23T05:18:15;3.43;72.48
64833;HTU21D;51290;45.060;38.948;2024-02-23T05:20:42;3.44;72.45
64833;HTU21D;51290;45.060;38.948;2024-02-23T05:23:07;3.44;72.47
64833;HTU21D;51290;45.060;38.948;2024-02-23T05:25:34;3.45;72.48
64833;HTU21D;51290;45.060;38.948;2024-02-23T05:28:00;3.45;72.48
64833;HTU21D;51290;45.060;38.948;2024-02-23T05:30:26;3.46;72.48
64833;HTU21D;51290;45.060;38.948;2024-02-23T05:32:57;3.49;72.53
64833;HTU21D;51290;45.060;38.948;2024-02-23T05:35:24;3.54;72.64
64833;HTU21D;51290;45.060;38.948;2024-02-23T05:37:50;3.58;72.70
64833;HTU21D;51290;45.060;38.948;2024-02-23T05:40:16;3.64;72.74
64833;HTU21D;51290;45.060;38.948;2024-02-23T05:42:42;3.71;72.78
64833;HTU21D;51290;45.060;38.948;2024-02-23T05:45:09;3.77;72.81
64833;HTU21D;51290;45.060;38.948;2024-02-23T05:47:39;3.85;72.85
64833;HTU21D;51290;45.060;38.948;2024-02-23T05:50:08;3.94;72.87
64833;HTU21D;51290;45.060;38.948;2024-02-23T05:52:34;4.03;72.90
64833;HTU21D;51290;45.060;38.948;2024-02-23T05:55:03;4.09;72.93
64833;HTU21D;51290;45.060;38.948;2024-02-23T05:57:32;4.15;72.94
64833;HTU21D;51290;45.060;38.948;2024-02-23T05:59:58;4.19;72.97
64833;HTU21D;51290;45.060;38.948;2024-02-23T06:02:24;4.24;73.03
64833;HTU21D;51290;45.060;38.948;2024-02-23T06:04:50;4.31;73.12
64833;HTU21D;51290;45.060;38.948;2024-02-23T06:07:16;4.39;73.20
64833;HTU21D;51290;45.060;38.948;2024-02-23T06:09:45;4.49;73.22
64833;HTU21D;51290;45.060;38.948;2024-02-23T06:12:11;4.60;73.20
64833;HTU21D;51290;45.060;38.948;2024-02-23T06:14:37;4.67;73.14
64833;HTU21D;51290;45.060;38.948;2024-02-23T06:17:03;4.77;73.13
64833;HTU21D;51290;45.060;38.948;2024-02-23T06:19:29;4.89;73.12
64833;HTU21D;51290;45.060;38.948;2024-02-23T06:21:55;4.96;73.03
64833;HTU21D;51290;45.060;38.948;2024-02-23T06:24:21;5.06;72.98
64833;HTU21D;51290;45.060;38.948;2024-02-23T06:26:47;5.16;72.93
64833;HTU21D;51290;45.060;38.948;2024-02-23T06:29:14;5.27;72.86
64833;HTU21D;51290;45.060;38.948;2024-02-23T06:31:40;5.41;72.75
64833;HTU21D;51290;45.060;38.948;2024-02-23T06:34:07;5.59;72.69
64833;HTU21D;51290;45.060;38.948;2024-02-23T06:36:34;5.78;72.58
64833;HTU21D;51290;45.060;38.948;2024-02-23T06:39:00;5.99;72.41
64833;HTU21D;51290;45.060;38.948;2024-02-23T06:41:26;6.19;72.16
64833;HTU21D;51290;45.060;38.948;2024-02-23T06:43:52;6.40;71.93
64833;HTU21D;51290;45.060;38.948;2024-02-23T06:46:21;6.63;71.66
64833;HTU21D;51290;45.060;38.948;2024-02-23T06:48:47;6.83;71.25
64833;HTU21D;51290;45.060;38.948;2024-02-23T06:51:13;7.00;70.90
64833;HTU21D;51290;45.060;38.948;2024-02-23T06:53:41;7.17;70.50
64833;HTU21D;51290;45.060;38.948;2024-02-23T06:56:07;7.32;70.19
64833;HTU21D;51290;45.060;38.948;2024-02-23T06:58:33;7.48;69.94
64833;HTU21D;51290;45.060;38.948;2024-02-23T07:00:59;7.62;69.59
64833;HTU21D;51290;45.060;38.948;2024-02-23T07:03:26;7.71;69.10
64833;HTU21D;51290;45.060;38.948;2024-02-23T07:05:52;7.74;68.67
64833;HTU21D;51290;45.060;38.948;2024-02-23T07:08:18;7.74;68.26
64833;HTU21D;51290;45.060;38.948;2024-02-23T07:10:44;7.70;68.02
64833;HTU21D;51290;45.060;38.948;2024-02-23T07:13:10;7.70;67.94
64833;HTU21D;51290;45.060;38.948;2024-02-23T07:15:36;7.69;67.79
64833;HTU21D;51290;45.060;38.948;2024-02-23T07:18:03;7.70;67.81
64833;HTU21D;51290;45.060;38.948;2024-02-23T07:20:29;7.72;67.80
64833;HTU21D;51290;45.060;38.948;2024-02-23T07:22:55;7.76;67.72
64833;HTU21D;51290;45.060;38.948;2024-02-23T07:25:21;7.86;67.62
64833;HTU21D;51290;45.060;38.948;2024-02-23T07:27:48;7.97;67.59
64833;HTU21D;51290;45.060;38.948;2024-02-23T07:30:15;8.09;67.57
64833;HTU21D;51290;45.060;38.948;2024-02-23T07:32:44;8.22;67.48
64833;HTU21D;51290;45.060;38.948;2024-02-23T07:35:10;8.31;67.39
64833;HTU21D;51290;45.060;38.948;2024-02-23T07:37:37;8.35;67.11
64833;HTU21D;51290;45.060;38.948;2024-02-23T07:40:03;8.31;66.72
64833;HTU21D;51290;45.060;38.948;2024-02-23T07:42:30;8.24;66.72
64833;HTU21D;51290;45.060;38.948;2024-02-23T07:44:56;8.20;66.85
64833;HTU21D;51290;45.060;38.948;2024-02-23T07:47:22;8.19;67.10
64833;HTU21D;51290;45.060;38.948;2024-02-23T07:49:48;8.19;67.16
64833;HTU21D;51290;45.060;38.948;2024-02-23T07:52:14;8.21;67.01
64833;HTU21D;51290;45.060;38.948;2024-02-23T07:54:40;8.23;66.85
64833;HTU21D;51290;45.060;38.948;2024-02-23T07:57:06;8.27;66.81
64833;HTU21D;51290;45.060;38.948;2024-02-23T07:59:33;8.31;66.60
64833;HTU21D;51290;45.060;38.948;2024-02-23T08:01:59;8.30;66.49
64833;HTU21D;51290;45.060;38.948;2024-02-23T08:04:25;8.31;66.40
64833;HTU21D;51290;45.060;38.948;2024-02-23T08:06:51;8.30;66.26
64833;HTU21D;51290;45.060;38.948;2024-02-23T08:09:17;8.28;66.38
64833;HTU21D;51290;45.060;38.948;2024-02-23T08:11:43;8.29;66.45
64833;HTU21D;51290;45.060;38.948;2024-02-23T08:14:09;8.34;66.49
64833;HTU21D;51290;45.060;38.948;2024-02-23T08:16:35;8.42;66.52
64833;HTU21D;51290;45.060;38.948;2024-02-23T08:19:01;8.49;66.53
64833;HTU21D;51290;45.060;38.948;2024-02-23T08:21:27;8.57;66.44
64833;HTU21D;51290;45.060;38.948;2024-02-23T08:23:53;8.65;66.56
64833;HTU21D;51290;45.060;38.948;2024-02-23T08:26:19;8.75;66.43
64833;HTU21D;51290;45.060;38.948;2024-02-23T08:28:45;8.83;66.20
64833;HTU21D;51290;45.060;38.948;2024-02-23T08:31:11;8.90;66.04
64833;HTU21D;51290;45.060;38.948;2024-02-23T08:33:37;8.96;65.83
64833;HTU21D;51290;45.060;38.948;2024-02-23T08:36:04;9.03;65.75
64833;HTU21D;51290;45.060;38.948;2024-02-23T08:38:32;9.09;65.55
64833;HTU21D;51290;45.060;38.948;2024-02-23T08:40:58;9.12;65.32
64833;HTU21D;51290;45.060;38.948;2024-02-23T08:43:24;9.17;65.15
64833;HTU21D;51290;45.060;38.948;2024-02-23T08:45:50;9.18;65.00
64833;HTU21D;51290;45.060;38.948;2024-02-23T08:48:17;9.18;64.97
64833;HTU21D;51290;45.060;38.948;2024-02-23T08:50:43;9.20;64.98
64833;HTU21D;51290;45.060;38.948;2024-02-23T08:53:09;9.23;65.06
64833;HTU21D;51290;45.060;38.948;2024-02-23T08:55:36;9.27;64.93
64833;HTU21D;51290;45.060;38.948;2024-02-23T08:58:02;9.34;65.11
64833;HTU21D;51290;45.060;38.948;2024-02-23T09:00:28;9.44;65.23
64833;HTU21D;51290;45.060;38.948;2024-02-23T09:02:54;9.49;64.60
64833;HTU21D;51290;45.060;38.948;2024-02-23T09:05:20;9.52;64.40
64833;HTU21D;51290;45.060;38.948;2024-02-23T09:07:46;9.54;64.18
64833;HTU21D;51290;45.060;38.948;2024-02-23T09:10:12;9.55;63.95
64833;HTU21D;51290;45.060;38.948;2024-02-23T09:12:38;9.57;63.85
64833;HTU21D;51290;45.060;38.948;2024-02-23T09:15:05;9.61;63.91
64833;HTU21D;51290;45.060;38.948;2024-02-23T09:17:31;9.63;63.60
64833;HTU21D;51290;45.060;38.948;2024-02-23T09:19:57;9.65;63.36
64833;HTU21D;51290;45.060;38.948;2024-02-23T09:22:23;9.67;63.30
64833;HTU21D;51290;45.060;38.948;2024-02-23T09:24:50;9.68;63.29
64833;HTU21D;51290;45.060;38.948;2024-02-23T09:27:20;9.70;63.13
64833;HTU21D;51290;45.060;38.948;2024-02-23T09:29:46;9.72;63.26
64833;HTU21D;51290;45.060;38.948;2024-02-23T09:32:12;9.78;63.37
64833;HTU21D;51290;45.060;38.948;2024-02-23T09:34:38;9.83;63.35
64833;HTU21D;51290;45.060;38.948;2024-02-23T09:37:04;9.91;63.30
64833;HTU21D;51290;45.060;38.948;2024-02-23T09:39:30;9.97;62.96
64833;HTU21D;51290;45.060;38.948;2024-02-23T09:41:56;10.00;62.53
64833;HTU21D;51290;45.060;38.948;2024-02-23T09:44:23;10.03;62.56
64833;HTU21D;51290;45.060;38.948;2024-02-23T09:46:49;10.03;62.73
64833;HTU21D;51290;45.060;38.948;2024-02-23T09:49:15;10.06;62.79
64833;HTU21D;51290;45.060;38.948;2024-02-23T09:51:42;10.07;62.71
64833;HTU21D;51290;45.060;38.948;2024-02-23T09:54:09;10.10;62.66
64833;HTU21D;51290;45.060;38.948;2024-02-23T09:56:35;10.14;62.50
64833;HTU21D;51290;45.060;38.948;2024-02-23T09:59:03;10.19;62.47
64833;HTU21D;51290;45.060;38.948;2024-02-23T10:01:31;10.21;62.49
64833;HTU21D;51290;45.060;38.948;2024-02-23T10:04:00;10.24;62.37
64833;HTU21D;51290;45.060;38.948;2024-02-23T10:06:26;10.29;62.25
64833;HTU21D;51290;45.060;38.948;2024-02-23T10:08:53;10.36;62.02
64833;HTU21D;51290;45.060;38.948;2024-02-23T10:11:22;10.39;61.88
64833;HTU21D;51290;45.060;38.948;2024-02-23T10:13:49;10.43;61.86
64833;HTU21D;51290;45.060;38.948;2024-02-23T10:16:16;10.44;61.79
64833;HTU21D;51290;45.060;38.948;2024-02-23T10:18:42;10.46;61.63
64833;HTU21D;51290;45.060;38.948;2024-02-23T10:21:08;10.45;61.66
64833;HTU21D;51290;45.060;38.948;2024-02-23T10:23:35;10.49;61.76
64833;HTU21D;51290;45.060;38.948;2024-02-23T10:26:01;10.51;61.62
64833;HTU21D;51290;45.060;38.948;2024-02-23T10:28:27;10.54;61.68
64833;HTU21D;51290;45.060;38.948;2024-02-23T10:30:53;10.62;61.69
64833;HTU21D;51290;45.060;38.948;2024-02-23T10:33:23;10.66;61.47
64833;HTU21D;51290;45.060;38.948;2024-02-23T10:35:56;10.71;61.18
64833;HTU21D;51290;45.060;38.948;2024-02-23T10:38:23;10.75;60.80
64833;HTU21D;51290;45.060;38.948;2024-02-23T10:40:50;10.80;60.83
64833;HTU21D;51290;45.060;38.948;2024-02-23T10:43:20;10.85;60.47
64833;HTU21D;51290;45.060;38.948;2024-02-23T10:45:50;10.85;60.35
64833;HTU21D;51290;45.060;38.948;2024-02-23T10:48:17;10.88;60.27
64833;HTU21D;51290;45.060;38.948;2024-02-23T10:50:43;10.90;60.34
64833;HTU21D;51290;45.060;38.948;2024-02-23T10:53:10;10.93;60.20
64833;HTU21D;51290;45.060;38.948;2024-02-23T10:55:37;10.96;60.27
64833;HTU21D;51290;45.060;38.948;2024-02-23T10:58:06;10.99;59.86
64833;HTU21D;51290;45.060;38.948;2024-02-23T11:00:38;11.01;60.00
64833;HTU21D;51290;45.060;38.948;2024-02-23T11:03:04;11.04;59.86
64833;HTU21D;51290;45.060;38.948;2024-02-23T11:05:32;11.07;59.77
64833;HTU21D;51290;45.060;38.948;2024-02-23T11:07:59;11.12;59.69
64833;HTU21D;51290;45.060;38.948;2024-02-23T11:10:25;11.16;59.51
64833;HTU21D;51290;45.060;38.948;2024-02-23T11:13:00;11.26;58.74
64833;HTU21D;51290;45.060;38.948;2024-02-23T11:15:30;11.34;58.83
64833;HTU21D;51290;45.060;38.948;2024-02-23T11:18:00;11.41;58.79
64833;HTU21D;51290;45.060;38.948;2024-02-23T11:20:35;11.44;58.68
64833;HTU21D;51290;45.060;38.948;2024-02-23T11:23:13;11.48;58.38
64833;HTU21D;51290;45.060;38.948;2024-02-23T11:25:39;11.56;58.30
64833;HTU21D;51290;45.060;38.948;2024-02-23T11:28:05;11.68;58.38
64833;HTU21D;51290;45.060;38.948;2024-02-23T11:30:31;11.81;58.29
64833;HTU21D;51290;45.060;38.948;2024-02-23T11:32:59;11.90;57.51
64833;HTU21D;51290;45.060;38.948;2024-02-23T11:35:25;11.98;57.50
64833;HTU21D;51290;45.060;38.948;2024-02-23T11:37:54;12.02;57.28
64833;HTU21D;51290;45.060;38.948;2024-02-23T11:40:30;12.04;57.13
64833;HTU21D;51290;45.060;38.948;2024-02-23T11:42:57;12.07;57.20
64833;HTU21D;51290;45.060;38.948;2024-02-23T11:45:25;12.11;57.16
64833;HTU21D;51290;45.060;38.948;2024-02-23T11:47:51;12.18;57.19
64833;HTU21D;51290;45.060;38.948;2024-02-23T11:50:17;12.29;57.20
64833;HTU21D;51290;45.060;38.948;2024-02-23T11:52:46;12.42;57.03
64833;HTU21D;51290;45.060;38.948;2024-02-23T11:55:13;12.55;56.69
64833;HTU21D;51290;45.060;38.948;2024-02-23T11:57:45;12.69;56.36
64833;HTU21D;51290;45.060;38.948;2024-02-23T12:00:11;12.79;55.93
64833;HTU21D;51290;45.060;38.948;2024-02-23T12:02:37;12.82;55.64
64833;HTU21D;51290;45.060;38.948;2024-02-23T12:05:03;12.84;55.71
64833;HTU21D;51290;45.060;38.948;2024-02-23T12:07:30;12.89;55.63
64833;HTU21D;51290;45.060;38.948;2024-02-23T12:09:56;12.91;55.72
64833;HTU21D;51290;45.060;38.948;2024-02-23T12:12:25;12.95;55.57
64833;HTU21D;51290;45.060;38.948;2024-02-23T12:14:52;12.96;55.06
64833;HTU21D;51290;45.060;38.948;2024-02-23T12:17:18;12.97;54.98
64833;HTU21D;51290;45.060;38.948;2024-02-23T12:19:44;12.94;54.60
64833;HTU21D;51290;45.060;38.948;2024-02-23T12:22:11;12.92;54.78
64833;HTU21D;51290;45.060;38.948;2024-02-23T12:24:41;12.93;54.87
64833;HTU21D;51290;45.060;38.948;2024-02-23T12:27:07;12.97;54.96
64833;HTU21D;51290;45.060;38.948;2024-02-23T12:29:34;13.00;54.75
64833;HTU21D;51290;45.060;38.948;2024-02-23T12:32:04;12.99;54.97
64833;HTU21D;51290;45.060;38.948;2024-02-23T12:34:30;13.03;55.13
64833;HTU21D;51290;45.060;38.948;2024-02-23T12:36:56;13.08;55.11
64833;HTU21D;51290;45.060;38.948;2024-02-23T12:39:22;13.15;55.08
64833;HTU21D;51290;45.060;38.948;2024-02-23T12:41:48;13.15;54.81
64833;HTU21D;51290;45.060;38.948;2024-02-23T12:44:16;13.14;54.91
64833;HTU21D;51290;45.060;38.948;2024-02-23T12:46:42;13.14;54.66
64833;HTU21D;51290;45.060;38.948;2024-02-23T12:49:08;13.11;54.28
64833;HTU21D;51290;45.060;38.948;2024-02-23T12:51:34;13.08;53.88
64833;HTU21D;51290;45.060;38.948;2024-02-23T12:54:00;13.02;53.86
64833;HTU21D;51290;45.060;38.948;2024-02-23T12:56:26;12.97;53.92
64833;HTU21D;51290;45.060;38.948;2024-02-23T12:58:52;12.94;53.99
64833;HTU21D;51290;45.060;38.948;2024-02-23T13:01:22;12.95;54.17
64833;HTU21D;51290;45.060;38.948;2024-02-23T13:03:48;12.97;54.04
64833;HTU21D;51290;45.060;38.948;2024-02-23T13:06:14;12.99;54.05
64833;HTU21D;51290;45.060;38.948;2024-02-23T13:08:40;12.97;53.92
64833;HTU21D;51290;45.060;38.948;2024-02-23T13:11:08;12.96;54.03
64833;HTU21D;51290;45.060;38.948;2024-02-23T13:13:34;13.01;54.12
64833;HTU21D;51290;45.060;38.948;2024-02-23T13:16:00;13.06;54.11
64833;HTU21D;51290;45.060;38.948;2024-02-23T13:18:26;13.09;53.87
64833;HTU21D;51290;45.060;38.948;2024-02-23T13:20:52;13.08;53.66
64833;HTU21D;51290;45.060;38.948;2024-02-23T13:23:18;13.07;53.50
64833;HTU21D;51290;45.060;38.948;2024-02-23T13:25:45;13.01;53.36
64833;HTU21D;51290;45.060;38.948;2024-02-23T13:28:11;12.96;53.45
64833;HTU21D;51290;45.060;38.948;2024-02-23T13:30:37;12.93;53.46
64833;HTU21D;51290;45.060;38.948;2024-02-23T13:33:04;12.90;53.36
64833;HTU21D;51290;45.060;38.948;2024-02-23T13:35:32;12.82;53.30
64833;HTU21D;51290;45.060;38.948;2024-02-23T13:37:58;12.76;53.21
64833;HTU21D;51290;45.060;38.948;2024-02-23T13:40:24;12.67;53.22
64833;HTU21D;51290;45.060;38.948;2024-02-23T13:42:50;12.58;53.23
64833;HTU21D;51290;45.060;38.948;2024-02-23T13:45:18;12.52;53.49
64833;HTU21D;51290;45.060;38.948;2024-02-23T13:50:24;12.47;53.68
64833;HTU21D;51290;45.060;38.948;2024-02-23T13:52:50;12.42;53.68
64833;HTU21D;51290;45.060;38.948;2024-02-23T13:55:16;12.38;53.69
64833;HTU21D;51290;45.060;38.948;2024-02-23T13:57:42;12.34;53.62
64833;HTU21D;51290;45.060;38.948;2024-02-23T14:00:08;12.30;53.71
64833;HTU21D;51290;45.060;38.948;2024-02-23T14:02:39;12.27;53.77
64833;HTU21D;51290;45.060;38.948;2024-02-23T14:05:08;12.23;53.77
64833;HTU21D;51290;45.060;38.948;2024-02-23T14:07:34;12.18;53.69
64833;HTU21D;51290;45.060;38.948;2024-02-23T14:10:01;12.15;53.74
64833;HTU21D;51290;45.060;38.948;2024-02-23T14:12:28;12.12;53.79
64833;HTU21D;51290;45.060;38.948;2024-02-23T14:14:54;12.07;53.60
64833;HTU21D;51290;45.060;38.948;2024-02-23T14:17:20;12.04;53.72
64833;HTU21D;51290;45.060;38.948;2024-02-23T14:19:46;12.01;53.78
64833;HTU21D;51290;45.060;38.948;2024-02-23T14:22:13;12.00;53.88
64833;HTU21D;51290;45.060;38.948;2024-02-23T14:24:39;11.98;53.91
64833;HTU21D;51290;45.060;38.948;2024-02-23T14:27:06;11.98;53.92
64833;HTU21D;51290;45.060;38.948;2024-02-23T14:29:32;11.94;53.77
64833;HTU21D;51290;45.060;38.948;2024-02-23T14:31:59;11.92;53.75
64833;HTU21D;51290;45.060;38.948;2024-02-23T14:34:25;11.88;53.89
64833;HTU21D;51290;45.060;38.948;2024-02-23T14:36:51;11.87;54.03
64833;HTU21D;51290;45.060;38.948;2024-02-23T14:39:18;11.84;54.10
64833;HTU21D;51290;45.060;38.948;2024-02-23T14:41:44;11.79;54.08
64833;HTU21D;51290;45.060;38.948;2024-02-23T14:44:10;11.77;54.13
64833;HTU21D;51290;45.060;38.948;2024-02-23T14:46:36;11.72;54.20
64833;HTU21D;51290;45.060;38.948;2024-02-23T14:49:02;11.67;54.23
64833;HTU21D;51290;45.060;38.948;2024-02-23T14:51:28;11.63;54.29
64833;HTU21D;51290;45.060;38.948;2024-02-23T14:53:54;11.59;54.31
64833;HTU21D;51290;45.060;38.948;2024-02-23T14:56:21;11.55;54.47
64833;HTU21D;51290;45.060;38.948;2024-02-23T14:58:47;11.53;54.58
64833;HTU21D;51290;45.060;38.948;2024-02-23T15:01:13;11.48;54.70
64833;HTU21D;51290;45.060;38.948;2024-02-23T15:03:39;11.46;54.79
64833;HTU21D;51290;45.060;38.948;2024-02-23T15:06:05;11.44;54.87
64833;HTU21D;51290;45.060;38.948;2024-02-23T15:08:31;11.42;54.97